Time;durP1;ratioP1;P1;durP2;ratioP2;P2;SDS_P1;SDS_P2;PMS_P1;PMS_P2;Temp;Humidity;BMP_temperature;BMP_pressure;BME280_temperature;BME280_humidity;BME280_pressure;Samples;Min_cycle;Max_cycle;Signal;HPM_P1;HPM_P2
2021/04/26 00:00:35;;;;;;;33.07;7.90;;;;;;;6.38;48.68;100812.44;5057976;27;101471;-73
2021/04/26 00:03:01;;;;;;;31.77;9.30;;;;;;;6.34;49.20;100815.94;5057096;27;101481;-72
2021/04/26 00:05:27;;;;;;;17.70;8.17;;;;;;;6.29;49.08;100822.97;5058610;27;96895;-73
2021/04/26 00:07:54;;;;;;;16.37;8.57;;;;;;;6.28;48.67;100821.22;5057615;27;96861;-73
2021/04/26 00:10:20;;;;;;;16.77;8.90;;;;;;;6.27;48.70;100816.88;5058184;27;101324;-73
2021/04/26 00:12:46;;;;;;;20.00;8.80;;;;;;;6.23;48.68;100816.06;5036924;27;101417;-76
2021/04/26 00:15:17;;;;;;;17.70;8.73;;;;;;;6.22;48.29;100814.31;5038134;27;96682;-73
2021/04/26 00:17:42;;;;;;;14.80;8.83;;;;;;;6.20;48.85;100821.31;5021637;27;97096;-73
2021/04/26 00:20:10;;;;;;;16.67;8.37;;;;;;;6.17;48.91;100816.13;5036939;27;101299;-73
2021/04/26 00:22:36;;;;;;;16.07;8.20;;;;;;;6.20;48.84;100810.88;5040606;27;101042;-73
2021/04/26 00:25:04;;;;;;;15.10;7.90;;;;;;;6.22;48.58;100810.84;5053587;27;97110;-71
2021/04/26 00:27:30;;;;;;;14.27;8.00;;;;;;;6.21;48.56;100802.16;5072228;27;96808;-73
2021/04/26 00:29:55;;;;;;;13.73;7.33;;;;;;;6.21;48.81;100802.16;5054045;27;97621;-73
2021/04/26 00:32:21;;;;;;;17.73;7.10;;;;;;;6.23;48.28;100795.19;5037450;27;97496;-73
2021/04/26 00:34:46;;;;;;;14.97;7.60;;;;;;;6.25;48.18;100805.59;5037852;27;96804;-73
2021/04/26 00:37:12;;;;;;;15.27;6.57;;;;;;;6.25;48.46;100803.84;5038020;27;96979;-73
2021/04/26 00:39:37;;;;;;;14.63;6.20;;;;;;;6.28;48.63;100800.34;5036860;27;101341;-73
2021/04/26 00:42:03;;;;;;;19.70;6.53;;;;;;;6.28;48.44;100801.25;5036538;27;101259;-75
2021/04/26 00:44:28;;;;;;;19.13;6.60;;;;;;;6.25;48.34;100795.16;5054753;27;96627;-73
2021/04/26 00:46:54;;;;;;;15.50;6.23;;;;;;;6.22;48.50;100798.66;5053397;27;97139;-73
2021/04/26 00:49:20;;;;;;;13.33;6.17;;;;;;;6.17;48.98;100790.03;5036855;27;100996;-73
2021/04/26 00:51:45;;;;;;;14.83;6.87;;;;;;;6.19;48.44;100790.00;5042469;27;101633;-76
2021/04/26 00:54:11;;;;;;;16.93;7.53;;;;;;;6.15;48.66;100797.00;5045009;27;96648;-73
2021/04/26 00:56:38;;;;;;;20.27;7.03;;;;;;;6.09;49.24;100794.44;5054604;27;97132;-73
2021/04/26 00:59:03;;;;;;;17.03;6.83;;;;;;;6.05;48.82;100796.22;5036464;27;101043;-74
2021/04/26 01:01:29;;;;;;;19.60;7.97;;;;;;;6.00;49.52;100795.38;5025566;27;101693;-73
2021/04/26 01:03:55;;;;;;;16.53;8.57;;;;;;;5.98;49.28;100799.72;5053588;27;97132;-73
2021/04/26 01:06:20;;;;;;;18.87;9.43;;;;;;;5.96;49.37;100792.81;5037832;27;97032;-72
2021/04/26 01:08:46;;;;;;;24.83;10.73;;;;;;;5.92;49.23;100791.94;5038613;27;101984;-76
2021/04/26 01:11:34;;;;;;;27.83;9.63;;;;;;;5.93;49.54;100787.59;5075911;27;98377;-73
2021/04/26 01:14:06;;;;;;;20.00;8.57;;;;;;;5.85;49.15;100787.66;5040432;27;97062;-73
2021/04/26 01:16:40;;;;;;;23.47;7.77;;;;;;;5.88;49.18;100788.50;5058489;27;97036;-74
2021/04/26 01:19:47;;;;;;;20.23;8.33;;;;;;;5.86;49.84;100792.84;5023141;27;101026;-73
2021/04/26 01:22:40;;;;;;;16.10;7.60;;;;;;;5.79;49.32;100782.47;5040212;27;101758;-73
2021/04/26 01:25:08;;;;;;;19.83;8.30;;;;;;;5.76;49.47;100782.50;5056974;27;97019;-73
2021/04/26 01:27:55;;;;;;;17.57;8.50;;;;;;;5.70;49.78;100780.78;5040719;27;96997;-73
2021/04/26 01:30:35;;;;;;;22.73;8.10;;;;;;;5.67;50.21;100773.88;5040601;27;98117;-73
2021/04/26 01:33:24;;;;;;;22.60;9.13;;;;;;;5.62;50.32;100783.47;5042444;27;100848;-73
2021/04/26 01:36:00;;;;;;;23.05;10.10;;;;;;;5.58;50.18;100773.06;5029617;27;97201;-73
2021/04/26 01:38:37;;;;;;;21.57;9.47;;;;;;;5.55;49.99;100780.91;5043006;27;97106;-73
2021/04/26 01:41:03;;;;;;;20.77;8.57;;;;;;;5.49;50.27;100773.13;5049060;27;101528;-73
2021/04/26 01:43:30;;;;;;;14.27;7.27;;;;;;;5.45;50.68;100778.34;5040053;27;101907;-73
2021/04/26 01:45:58;;;;;;;19.90;7.80;;;;;;;5.47;50.54;100769.66;5047073;27;97620;-73
2021/04/26 01:48:28;;;;;;;25.67;7.30;;;;;;;5.42;50.39;100770.56;5040690;27;97062;-73
2021/04/26 01:50:57;;;;;;;18.47;7.37;;;;;;;5.35;50.78;100770.59;5067428;27;101492;-73
2021/04/26 01:53:24;;;;;;;19.70;9.17;;;;;;;5.29;50.52;100766.28;5043057;27;101166;-73
2021/04/26 01:55:50;;;;;;;21.07;8.53;;;;;;;5.29;50.92;100768.88;5059983;27;96805;-76
2021/04/26 01:58:16;;;;;;;22.27;8.57;;;;;;;5.21;50.75;100765.47;5078706;27;96945;-73
2021/04/26 02:00:42;;;;;;;17.20;8.30;;;;;;;5.21;50.92;100765.47;5059507;27;100910;-73
2021/04/26 02:03:10;;;;;;;18.40;7.87;;;;;;;5.22;50.76;100764.59;5059173;27;101758;-72
2021/04/26 02:05:51;;;;;;;23.23;6.70;;;;;;;5.17;50.74;100761.13;5061161;27;96813;-76
2021/04/26 02:08:17;;;;;;;14.77;6.07;;;;;;;5.13;50.74;100757.69;5060389;27;97265;-73
2021/04/26 02:10:46;;;;;;;15.50;6.37;;;;;;;5.13;50.82;100756.84;5052482;27;100782;-75
2021/04/26 02:13:19;;;;;;;12.27;6.10;;;;;;;5.06;50.32;100743.00;5028245;27;102300;-73
2021/04/26 02:15:49;;;;;;;12.90;6.33;;;;;;;5.04;50.45;100749.06;5043153;27;96887;-75
2021/04/26 02:18:15;;;;;;;14.00;6.20;;;;;;;5.04;50.13;100746.47;5060476;27;96837;-73
2021/04/26 02:20:40;;;;;;;14.43;6.40;;;;;;;4.91;50.75;100748.25;5058832;27;101355;-73
2021/04/26 02:23:08;;;;;;;15.70;7.10;;;;;;;4.92;51.01;100745.66;5048524;27;101474;-73
2021/04/26 02:25:34;;;;;;;21.17;11.10;;;;;;;4.86;50.93;100744.78;5037442;27;96796;-73
2021/04/26 02:28:02;;;;;;;36.13;16.03;;;;;;;4.86;50.85;100743.09;5029818;27;96887;-73
2021/04/26 02:30:28;;;;;;;28.73;13.17;;;;;;;4.85;50.69;100745.66;5042600;27;100573;-72
2021/04/26 02:33:14;;;;;;;24.47;11.10;;;;;;;4.84;50.94;100750.00;5058299;27;102012;-73
2021/04/26 02:36:04;;;;;;;29.20;8.30;;;;;;;4.78;50.85;100747.44;5052478;27;97251;-73
2021/04/26 02:38:34;;;;;;;21.90;7.73;;;;;;;4.73;50.74;100747.44;5023058;27;96902;-73
2021/04/26 02:41:12;;;;;;;17.73;6.67;;;;;;;4.75;50.49;100747.44;5021566;27;101510;-74
2021/04/26 02:43:44;;;;;;;44.97;7.80;;;;;;;4.72;50.36;100750.94;5022457;27;101693;-73
2021/04/26 02:46:10;;;;;;;42.55;7.82;;;;;;;4.69;50.70;100750.94;5038882;27;96629;-73
2021/04/26 02:48:39;;;;;;;30.33;7.37;;;;;;;4.64;51.03;100744.88;5057125;27;96950;-73
2021/04/26 02:51:06;;;;;;;43.97;7.43;;;;;;;4.65;50.49;100738.78;5031774;27;101360;-73
2021/04/26 02:53:33;;;;;;;77.17;8.07;;;;;;;4.64;50.90;100757.88;5043000;27;100874;-74
2021/04/26 02:56:04;;;;;;;73.93;7.97;;;;;;;4.61;51.00;100747.50;5058492;27;97069;-73
2021/04/26 02:58:34;;;;;;;63.10;8.87;;;;;;;4.56;50.84;100751.81;5077691;27;96753;-73
2021/04/26 03:01:08;;;;;;;57.23;7.60;;;;;;;4.55;50.72;100750.09;5056814;27;98260;-74
2021/04/26 03:04:06;;;;;;;43.53;8.60;;;;;;;4.51;50.89;100745.78;5024219;27;97240;-73
2021/04/26 03:06:33;;;;;;;54.70;8.17;;;;;;;4.52;50.85;100743.19;5039695;27;96688;-73
2021/04/26 03:09:18;;;;;;;34.50;6.70;;;;;;;4.46;50.97;100747.53;5059389;27;97165;-73
2021/04/26 03:11:45;;;;;;;21.40;5.40;;;;;;;4.46;51.14;100748.41;5022018;27;101604;-73
2021/04/26 03:14:12;;;;;;;18.57;6.43;;;;;;;4.41;50.90;100744.06;5021696;27;101610;-73
2021/04/26 03:16:39;;;;;;;36.23;6.93;;;;;;;4.38;51.24;100744.09;5038674;27;97391;-73
2021/04/26 03:19:06;;;;;;;13.40;6.70;;;;;;;4.30;51.28;100742.38;5035530;27;97052;-73
2021/04/26 03:21:33;;;;;;;15.43;5.73;;;;;;;4.31;51.42;100754.50;5032209;27;101597;-72
2021/04/26 03:23:59;;;;;;;34.20;6.93;;;;;;;4.31;51.74;100751.03;5093980;27;97320;-73
2021/04/26 03:26:24;;;;;;;20.07;5.80;;;;;;;4.25;51.74;100751.03;5059676;27;97142;-73
2021/04/26 03:28:51;;;;;;;23.87;7.60;;;;;;;4.22;51.60;100746.72;5075732;27;96986;-77
2021/04/26 03:31:18;;;;;;;19.30;8.33;;;;;;;4.21;51.63;100749.28;5058043;27;100444;-73
2021/04/26 03:34:10;;;;;;;24.77;8.17;;;;;;;4.24;51.24;100752.75;5048594;27;101479;-73
2021/04/26 03:36:38;;;;;;;32.43;8.37;;;;;;;4.25;51.50;100749.31;5042513;27;97994;-73
2021/04/26 03:39:10;;;;;;;43.50;9.13;;;;;;;4.27;51.12;100746.69;5040925;27;97368;-74
2021/04/26 03:41:37;;;;;;;31.10;11.07;;;;;;;4.23;51.31;100748.44;5075864;27;98370;-73
2021/04/26 03:44:04;;;;;;;53.63;10.50;;;;;;;4.23;51.34;100747.56;5031646;27;101371;-74
2021/04/26 03:46:54;;;;;;;52.13;12.47;;;;;;;4.22;51.06;100751.06;5035813;27;96661;-73
2021/04/26 03:49:43;;;;;;;47.77;12.03;;;;;;;4.25;51.03;100754.50;5044093;27;97554;-73
2021/04/26 03:52:27;;;;;;;47.47;11.93;;;;;;;4.29;51.12;100755.34;5058222;27;97842;-73
2021/04/26 03:55:14;;;;;;;32.17;10.93;;;;;;;4.22;51.15;100751.06;5047271;27;101749;-73
2021/04/26 03:57:41;;;;;;;33.47;10.60;;;;;;;4.28;51.12;100756.22;5042134;27;96915;-73
2021/04/26 04:00:09;;;;;;;19.83;8.83;;;;;;;4.24;51.38;100757.09;5058122;27;97180;-73
2021/04/26 04:02:47;;;;;;;18.40;7.57;;;;;;;4.28;51.05;100764.88;5058768;27;97943;-73
2021/04/26 04:05:14;;;;;;;21.23;7.50;;;;;;;4.31;51.37;100770.09;5041052;27;101527;-73
2021/04/26 04:08:06;;;;;;;20.73;8.23;;;;;;;4.49;51.30;100773.53;5032763;27;97251;-73
2021/04/26 04:10:50;;;;;;;22.90;9.50;;;;;;;4.53;50.62;100778.69;5078774;27;97332;-76
2021/04/26 04:13:34;;;;;;;21.50;9.17;;;;;;;4.67;50.38;100778.66;5060583;27;97289;-73
2021/04/26 04:16:00;;;;;;;33.90;8.60;;;;;;;4.72;50.09;100771.72;5074377;27;101539;-73
2021/04/26 04:18:26;;;;;;;16.20;7.90;;;;;;;4.83;49.81;100779.50;5058607;27;96982;-73
2021/04/26 04:20:52;;;;;;;22.43;7.07;;;;;;;4.93;50.02;100777.72;5093694;27;96980;-76
2021/04/26 04:23:18;;;;;;;12.20;5.47;;;;;;;5.14;49.58;100774.16;5046313;27;98836;-73
2021/04/26 04:25:45;;;;;;;14.47;6.10;;;;;;;5.32;49.18;100783.63;5037742;27;100921;-73
2021/04/26 04:28:11;;;;;;;13.83;5.80;;;;;;;5.45;48.60;100786.16;5037530;27;96791;-73
2021/04/26 04:30:40;;;;;;;17.83;5.60;;;;;;;5.68;48.59;100783.41;5040314;27;96891;-73
2021/04/26 04:33:24;;;;;;;13.77;6.03;;;;;;;5.89;48.37;100781.53;5054539;27;97117;-73
2021/04/26 04:36:10;;;;;;;11.47;4.90;;;;;;;5.74;48.21;100785.13;5039567;27;96951;-73
2021/04/26 04:38:54;;;;;;;13.03;5.27;;;;;;;5.72;48.85;100786.84;5046565;27;96793;-77
2021/04/26 04:41:38;;;;;;;10.97;5.23;;;;;;;6.00;48.32;100782.34;5060176;27;96681;-73
2021/04/26 04:44:04;;;;;;;19.60;5.03;;;;;;;6.26;47.41;100783.88;5035713;27;101112;-73
2021/04/26 04:46:31;;;;;;;23.63;5.23;;;;;;;6.50;46.98;100786.25;5053433;27;100794;-73
2021/04/26 04:49:10;;;;;;;9.70;4.67;;;;;;;6.99;46.51;100793.53;5059165;27;96665;-73
2021/04/26 04:51:36;;;;;;;27.60;6.93;;;;;;;7.45;45.72;100790.34;5074881;27;96844;-73
2021/04/26 04:54:05;;;;;;;42.83;7.53;;;;;;;7.41;46.36;100783.44;5062316;27;98491;-73
2021/04/26 04:56:44;;;;;;;39.87;7.97;;;;;;;7.24;46.50;100790.63;5023831;27;101708;-73
2021/04/26 04:59:09;;;;;;;18.07;6.03;;;;;;;7.11;46.81;100789.06;5032076;27;97323;-73
2021/04/26 05:01:38;;;;;;;12.03;5.77;;;;;;;7.05;46.77;100789.16;5051001;27;97022;-73
2021/04/26 05:04:26;;;;;;;11.53;6.50;;;;;;;6.94;46.84;100792.72;5056831;27;98287;-73
2021/04/26 05:07:10;;;;;;;16.93;5.97;;;;;;;6.92;46.85;100781.47;5046782;27;97136;-73
2021/04/26 05:09:54;;;;;;;26.70;6.87;;;;;;;7.09;46.18;100790.81;5058962;27;96809;-76
2021/04/26 05:12:38;;;;;;;40.90;8.17;;;;;;;7.32;46.41;100782.69;5057493;27;97001;-73
2021/04/26 05:15:22;;;;;;;34.37;6.97;;;;;;;7.45;46.21;100781.66;5077367;27;97095;-73
2021/04/26 05:17:48;;;;;;;28.23;6.97;;;;;;;9.18;42.98;100781.28;5048730;27;101566;-74
2021/04/26 05:20:14;;;;;;;28.52;6.38;;;;;;;9.74;42.04;100779.19;5041299;27;97080;-74
2021/04/26 05:22:40;;;;;;;20.13;6.67;;;;;;;9.47;42.47;100787.66;5034007;27;97023;-75
2021/04/26 05:25:08;;;;;;;24.73;6.22;;;;;;;10.99;40.13;100782.09;5040269;27;101392;-75
2021/04/26 05:27:36;;;;;;;44.92;7.90;;;;;;;9.79;41.28;100780.81;5037778;27;99868;-74
2021/04/26 05:30:07;;;;;;;21.60;6.55;;;;;;;15.20;34.13;100782.44;5053242;27;97421;-75
2021/04/26 05:32:33;;;;;;;25.02;6.90;;;;;;;17.65;30.35;100768.16;5054095;27;97081;-76
2021/04/26 05:35:05;;;;;;;16.08;5.80;;;;;;;20.34;27.42;100765.75;5055666;27;98107;-74
2021/04/26 05:37:31;;;;;;;15.45;5.00;;;;;;;22.29;25.38;100767.84;5054540;27;100521;-74
2021/04/26 05:39:57;;;;;;;12.70;5.43;;;;;;;22.35;24.91;100770.06;5044385;27;97315;-73
2021/04/26 05:42:23;;;;;;;22.50;5.85;;;;;;;23.77;23.10;100761.59;5038623;27;97170;-74
2021/04/26 05:44:49;;;;;;;14.15;5.00;;;;;;;24.74;22.26;100759.66;5033162;27;101188;-73
2021/04/26 05:47:33;;;;;;;11.60;4.72;;;;;;;25.80;22.10;100759.16;5054122;27;97270;-73
2021/04/26 05:49:59;;;;;;;10.98;5.95;;;;;;;26.37;20.93;100760.19;5015954;27;97049;-73
2021/04/26 05:52:25;;;;;;;11.57;5.13;;;;;;;26.70;20.26;100767.94;5041630;27;97273;-74
2021/04/26 05:54:50;;;;;;;9.02;4.00;;;;;;;26.16;20.79;100760.34;5041456;27;101390;-72
2021/04/26 05:57:16;;;;;;;12.77;4.07;;;;;;;27.54;19.40;100751.69;5043908;27;97975;-74
2021/04/26 05:59:41;;;;;;;11.02;4.10;;;;;;;27.83;18.97;100753.38;5051917;27;97430;-73
2021/04/26 06:02:07;;;;;;;9.15;4.53;;;;;;;28.44;18.55;100750.72;5047775;27;97384;-74
2021/04/26 06:04:34;;;;;;;16.48;4.80;;;;;;;29.07;17.97;100746.91;5039460;27;98034;-74
2021/04/26 06:07:00;;;;;;;7.60;4.03;;;;;;;29.49;17.72;100742.47;5053115;27;101500;-72
2021/04/26 06:09:25;;;;;;;10.77;3.78;;;;;;;29.43;17.27;100741.28;5037651;27;97126;-73
2021/04/26 06:11:51;;;;;;;16.02;5.45;;;;;;;30.15;17.09;100740.75;5037686;27;96976;-73
2021/04/26 06:14:16;;;;;;;18.85;5.22;;;;;;;30.88;16.45;100735.25;5019753;27;101440;-73
2021/04/26 06:16:42;;;;;;;6.80;3.50;;;;;;;31.24;16.10;100736.63;5038996;27;100483;-75
2021/04/26 06:19:08;;;;;;;27.52;4.70;;;;;;;31.59;16.34;100729.84;5052700;27;97277;-73
2021/04/26 06:21:33;;;;;;;12.80;4.40;;;;;;;31.80;16.20;100734.63;5053955;27;97013;-72
2021/04/26 06:23:59;;;;;;;16.27;4.63;;;;;;;32.02;16.07;100727.53;5036705;27;101137;-73
2021/04/26 06:26:25;;;;;;;86.38;8.52;;;;;;;32.69;15.63;100724.00;5036986;27;98264;-73
2021/04/26 06:28:51;;;;;;;13.30;3.85;;;;;;;32.73;15.10;100728.06;5036606;27;96981;-72
2021/04/26 06:31:16;;;;;;;9.48;2.80;;;;;;;32.94;15.16;100726.47;5035437;27;97345;-73
2021/04/26 06:33:42;;;;;;;9.32;3.10;;;;;;;33.44;15.21;100725.63;5053015;27;97452;-72
2021/04/26 06:36:08;;;;;;;10.25;3.15;;;;;;;33.46;14.58;100715.41;5036402;27;97948;-73
2021/04/26 06:38:33;;;;;;;5.38;2.85;;;;;;;33.81;14.81;100719.16;5036200;27;96970;-73
2021/04/26 06:40:59;;;;;;;10.60;3.60;;;;;;;34.05;14.38;100714.38;5052249;27;97300;-73
2021/04/26 06:43:25;;;;;;;11.15;3.83;;;;;;;34.28;14.28;100713.28;5052998;27;98571;-73
2021/04/26 06:45:50;;;;;;;7.53;2.88;;;;;;;34.24;14.64;100707.41;5071502;27;98398;-73
2021/04/26 06:48:17;;;;;;;4.88;2.70;;;;;;;34.47;13.85;100708.00;5018859;27;97372;-73
2021/04/26 06:50:44;;;;;;;7.28;4.18;;;;;;;34.77;13.69;100707.78;5036125;27;97218;-74
2021/04/26 06:53:09;;;;;;;7.00;2.67;;;;;;;34.83;14.22;100706.13;5048506;27;101434;-73
2021/04/26 06:55:35;;;;;;;5.15;2.30;;;;;;;35.33;13.91;100701.31;5046109;27;100580;-73
2021/04/26 06:58:01;;;;;;;7.05;2.15;;;;;;;36.14;13.21;100697.69;5048016;27;97362;-73
2021/04/26 07:00:28;;;;;;;7.68;2.20;;;;;;;34.72;13.66;100696.63;5046670;27;96888;-73
2021/04/26 07:02:54;;;;;;;7.88;2.35;;;;;;;35.42;13.14;100696.50;5032603;27;101727;-73
2021/04/26 07:05:20;;;;;;;3.95;2.20;;;;;;;35.92;13.07;100689.66;5035382;27;101080;-74
2021/04/26 07:07:46;;;;;;;9.40;2.50;;;;;;;36.36;12.77;100679.16;5035108;27;97109;-73
2021/04/26 07:10:12;;;;;;;5.13;2.03;;;;;;;35.74;13.27;100681.25;5037076;27;97242;-73
2021/04/26 07:12:39;;;;;;;2.75;1.80;;;;;;;36.46;12.73;100676.84;5052063;27;97448;-75
2021/04/26 07:15:07;;;;;;;4.35;2.25;;;;;;;36.16;12.49;100679.19;5035083;27;101433;-75
2021/04/26 07:17:34;;;;;;;10.80;3.58;;;;;;;35.96;12.70;100673.72;5057917;27;97472;-75
2021/04/26 07:20:10;;;;;;;10.80;2.60;;;;;;;36.84;12.29;100676.13;5051805;27;97092;-75
2021/04/26 07:22:36;;;;;;;10.32;3.40;;;;;;;37.20;12.51;100675.53;5055076;27;98132;-74
2021/04/26 07:25:03;;;;;;;10.50;1.90;;;;;;;37.24;12.38;100679.53;5056030;27;97852;-74
2021/04/26 07:27:28;;;;;;;18.77;3.28;;;;;;;37.23;11.76;100677.84;5056523;27;97212;-75
2021/04/26 07:29:54;;;;;;;3.42;1.70;;;;;;;36.21;12.45;100669.28;5073150;27;97366;-75
2021/04/26 07:32:20;;;;;;;2.25;1.52;;;;;;;37.25;12.05;100680.38;5071717;27;98408;-77
2021/04/26 07:34:45;;;;;;;3.88;2.00;;;;;;;37.50;11.37;100675.00;5073892;27;98112;-76
2021/04/26 07:37:11;;;;;;;4.65;2.35;;;;;;;37.72;11.70;100669.97;5038870;27;97218;-76
2021/04/26 07:39:37;;;;;;;3.22;1.85;;;;;;;37.79;11.56;100666.13;5055876;27;97247;-76
2021/04/26 07:42:03;;;;;;;17.08;3.40;;;;;;;38.06;11.64;100671.41;5038988;27;98464;-77
2021/04/26 07:44:28;;;;;;;4.63;1.60;;;;;;;37.65;11.56;100661.00;5053263;27;97957;-77
2021/04/26 07:46:55;;;;;;;12.40;3.08;;;;;;;37.26;11.38;100665.63;5053528;27;97400;-75
2021/04/26 07:49:21;;;;;;;5.25;2.03;;;;;;;37.98;11.50;100658.81;5060294;27;98630;-74
2021/04/26 07:51:46;;;;;;;6.25;2.45;;;;;;;37.91;11.37;100660.75;5035415;27;100453;-74
2021/04/26 07:54:12;;;;;;;9.77;2.38;;;;;;;37.89;11.61;100654.66;5071367;27;98407;-73
2021/04/26 07:56:38;;;;;;;6.07;2.10;;;;;;;38.54;11.56;100657.00;5046405;27;97172;-75
2021/04/26 07:59:05;;;;;;;5.90;2.50;;;;;;;38.68;11.17;100657.69;5042321;27;96839;-77
2021/04/26 08:01:31;;;;;;;6.85;2.30;;;;;;;38.48;11.51;100663.41;5036853;27;100885;-74
2021/04/26 08:03:57;;;;;;;6.07;2.00;;;;;;;34.92;12.95;100659.38;5063629;27;101219;-78
2021/04/26 08:06:22;;;;;;;13.65;2.75;;;;;;;34.14;12.94;100668.78;5044785;27;97310;-73
2021/04/26 08:08:48;;;;;;;12.43;2.40;;;;;;;36.30;11.76;100658.97;5045415;27;97466;-73
2021/04/26 08:11:14;;;;;;;3.17;1.65;;;;;;;32.99;13.17;100661.50;5044988;27;101569;-73
2021/04/26 08:13:40;;;;;;;2.67;2.03;;;;;;;32.88;12.91;100657.38;5045384;27;97344;-72
2021/04/26 08:16:05;;;;;;;4.03;2.10;;;;;;;33.77;13.45;100666.16;5064667;27;96955;-73
2021/04/26 08:18:31;;;;;;;5.78;2.33;;;;;;;32.79;13.19;100656.66;5035391;27;96945;-73
2021/04/26 08:20:58;;;;;;;3.72;2.08;;;;;;;34.61;12.62;100661.75;5041563;27;98187;-72
2021/04/26 08:23:24;;;;;;;3.30;2.03;;;;;;;35.55;11.71;100661.09;5039860;27;101425;-73
2021/04/26 08:25:50;;;;;;;6.50;2.22;;;;;;;33.34;13.19;100663.38;5046886;27;97370;-73
2021/04/26 08:28:18;;;;;;;5.30;1.75;;;;;;;31.06;14.16;100669.94;5070324;27;97262;-73
2021/04/26 08:30:45;;;;;;;2.63;1.60;;;;;;;29.58;14.88;100673.03;5059265;27;101440;-73
2021/04/26 08:33:11;;;;;;;4.40;2.05;;;;;;;31.41;13.78;100661.47;5041137;27;101478;-73
2021/04/26 08:35:37;;;;;;;3.58;1.80;;;;;;;33.48;13.23;100658.94;5054380;27;97355;-73
2021/04/26 08:38:03;;;;;;;6.55;2.72;;;;;;;32.20;13.45;100662.88;5051625;27;97298;-76
2021/04/26 08:40:29;;;;;;;5.55;2.50;;;;;;;32.93;12.80;100668.53;5085870;27;98246;-73
2021/04/26 08:42:57;;;;;;;11.30;2.38;;;;;;;33.68;13.21;100655.56;5026287;27;101487;-73
2021/04/26 08:45:22;;;;;;;8.23;2.30;;;;;;;33.08;12.43;100658.50;5035654;27;97281;-75
2021/04/26 08:47:48;;;;;;;3.88;1.58;;;;;;;32.18;13.47;100664.09;5064891;27;97373;-74
2021/04/26 08:50:14;;;;;;;1.92;1.20;;;;;;;30.88;13.85;100672.06;5016672;27;100739;-75
2021/04/26 08:52:40;;;;;;;2.42;1.70;;;;;;;31.50;13.53;100658.50;5052446;27;98751;-75
2021/04/26 08:55:07;;;;;;;19.08;2.92;;;;;;;32.96;13.21;100660.00;5054207;27;96825;-76
2021/04/26 08:57:33;;;;;;;6.65;1.95;;;;;;;34.21;12.39;100667.78;5066506;27;97525;-76
2021/04/26 08:59:59;;;;;;;8.63;2.15;;;;;;;34.46;12.31;100665.41;5048223;27;97561;-76
2021/04/26 09:02:24;;;;;;;4.25;2.05;;;;;;;35.06;12.28;100664.94;5050222;27;101213;-75
2021/04/26 09:04:53;;;;;;;3.22;1.80;;;;;;;35.03;12.21;100666.16;5034233;27;97084;-75
2021/04/26 09:07:20;;;;;;;3.22;2.00;;;;;;;33.74;12.61;100661.06;5065007;27;97542;-74
2021/04/26 09:09:49;;;;;;;4.80;1.75;;;;;;;33.53;12.19;100655.66;5064538;27;97711;-74
2021/04/26 09:12:30;;;;;;;2.70;1.60;;;;;;;32.88;12.48;100651.94;5047804;27;97715;-75
2021/04/26 09:14:59;;;;;;;5.47;1.65;;;;;;;33.22;12.95;100662.22;5034664;27;97315;-73
2021/04/26 09:17:33;;;;;;;5.97;2.10;;;;;;;32.99;13.44;100654.22;5046527;27;96864;-74
2021/04/26 09:20:14;;;;;;;10.88;2.35;;;;;;;31.80;13.36;100650.50;5044063;27;100947;-72
2021/04/26 09:22:39;;;;;;;3.03;1.70;;;;;;;29.18;14.20;100656.59;5058101;27;98416;-73
2021/04/26 09:25:20;;;;;;;9.85;1.60;;;;;;;27.62;15.16;100652.03;5053563;27;97374;-75
2021/04/26 09:28:06;;;;;;;4.47;1.67;;;;;;;26.22;15.97;100659.38;5071855;27;97226;-73
2021/04/26 09:30:50;;;;;;;6.80;2.10;;;;;;;25.77;16.38;100651.06;5059138;27;98673;-74
2021/04/26 09:33:29;;;;;;;12.30;2.90;;;;;;;24.65;16.97;100648.59;5086436;27;97495;-73
2021/04/26 09:35:59;;;;;;;5.32;1.52;;;;;;;24.13;17.56;100655.75;5068651;27;98472;-74
2021/04/26 09:38:27;;;;;;;9.82;2.10;;;;;;;23.42;18.68;100650.13;5059143;27;97620;-73
2021/04/26 09:41:25;;;;;;;5.55;2.10;;;;;;;23.15;18.60;100650.53;5054469;27;101001;-73
2021/04/26 09:44:00;;;;;;;2.28;1.50;;;;;;;22.63;18.77;100644.88;5057719;27;97443;-73
2021/04/26 09:46:50;;;;;;;4.50;1.25;;;;;;;21.77;19.08;100648.81;5092058;27;96734;-73
2021/04/26 09:49:17;;;;;;;2.15;1.40;;;;;;;21.44;19.91;100647.72;5042307;27;97154;-71
2021/04/26 09:51:48;;;;;;;4.10;1.30;;;;;;;21.22;18.82;100642.22;5043066;27;97534;-71
2021/04/26 09:54:16;;;;;;;4.47;1.83;;;;;;;20.63;18.27;100639.41;5066925;27;98225;-73
2021/04/26 09:56:44;;;;;;;4.35;1.38;;;;;;;20.07;17.72;100631.69;5045358;27;97146;-72
2021/04/26 09:59:12;;;;;;;2.88;1.60;;;;;;;20.04;19.31;100627.44;5063129;27;98219;-72
2021/04/26 10:01:38;;;;;;;4.85;1.45;;;;;;;19.89;20.26;100634.66;5050765;27;101546;-72
2021/04/26 10:04:06;;;;;;;3.00;1.50;;;;;;;19.81;21.86;100626.34;5032936;27;100714;-71
2021/04/26 10:06:32;;;;;;;3.00;1.33;;;;;;;19.79;20.71;100624.75;5085735;27;97965;-72
2021/04/26 10:08:59;;;;;;;4.18;1.95;;;;;;;19.57;21.88;100631.47;5045562;27;97423;-73
2021/04/26 10:11:27;;;;;;;4.88;1.50;;;;;;;19.39;21.91;100619.38;5044361;27;98070;-72
2021/04/26 10:14:17;;;;;;;4.40;1.70;;;;;;;19.29;22.10;100615.63;5044660;27;97956;-73
2021/04/26 10:16:53;;;;;;;4.00;1.40;;;;;;;19.11;20.90;100621.22;5033144;27;97366;-73
2021/04/26 10:19:27;;;;;;;3.10;1.58;;;;;;;19.05;21.54;100608.28;5038348;27;97217;-72
2021/04/26 10:21:55;;;;;;;6.32;1.45;;;;;;;18.75;22.32;100606.63;5053139;27;97507;-73
2021/04/26 10:24:23;;;;;;;25.13;2.88;;;;;;;18.59;22.65;100610.31;5024731;27;101760;-72
2021/04/26 10:26:56;;;;;;;6.75;2.00;;;;;;;18.70;22.63;100607.84;5052584;27;96834;-71
2021/04/26 10:29:26;;;;;;;4.25;1.58;;;;;;;18.36;23.19;100617.94;5053210;27;97320;-71
2021/04/26 10:31:59;;;;;;;3.95;1.40;;;;;;;18.23;22.97;100614.31;5042619;27;99765;-71
2021/04/26 10:34:41;;;;;;;6.43;2.08;;;;;;;17.50;22.59;100614.25;5063109;27;98396;-71
2021/04/26 10:37:16;;;;;;;6.53;1.92;;;;;;;17.70;22.23;100605.09;5074067;27;97288;-71
2021/04/26 10:40:00;;;;;;;4.63;1.60;;;;;;;17.57;22.49;100605.84;5074152;27;97366;-70
2021/04/26 10:42:37;;;;;;;3.30;1.70;;;;;;;17.78;23.46;100592.28;5090103;27;98236;-70
2021/04/26 10:45:12;;;;;;;2.45;1.60;;;;;;;17.95;22.39;100594.78;5057684;27;101295;-71
2021/04/26 10:47:44;;;;;;;3.90;1.55;;;;;;;18.10;22.33;100596.50;5071375;27;97510;-71
2021/04/26 10:50:11;;;;;;;3.63;1.70;;;;;;;17.74;21.92;100599.50;5038756;27;97304;-71
2021/04/26 10:52:40;;;;;;;3.70;1.90;;;;;;;17.81;22.30;100597.41;5072460;27;97967;-71
2021/04/26 10:55:11;;;;;;;4.20;1.63;;;;;;;17.73;21.40;100583.69;5045070;27;100183;-73
2021/04/26 10:57:47;;;;;;;2.95;1.30;;;;;;;17.61;21.84;100588.78;5042174;27;97527;-72
2021/04/26 11:00:30;;;;;;;1.83;1.33;;;;;;;17.49;21.91;100586.84;5046236;27;97189;-73
2021/04/26 11:02:59;;;;;;;14.63;3.10;;;;;;;17.37;21.60;100591.06;5071395;27;101574;-71
2021/04/26 11:05:34;;;;;;;10.40;2.95;;;;;;;17.27;21.58;100587.22;5088820;27;97361;-71
2021/04/26 11:10:29;;;;;;;4.05;1.98;;;;;;;16.72;22.12;100572.59;5065822;27;96989;-71
2021/04/26 11:12:59;;;;;;;3.45;1.60;;;;;;;16.57;22.06;100565.50;5072899;27;100668;-73
2021/04/26 11:15:26;;;;;;;3.83;1.70;;;;;;;16.49;23.82;100576.56;5055412;27;97798;-72
2021/04/26 11:17:53;;;;;;;7.05;1.88;;;;;;;16.76;24.45;100581.31;5043034;27;96796;-71
2021/04/26 11:20:22;;;;;;;2.33;1.70;;;;;;;16.94;24.66;100572.31;5034996;27;97133;-72
2021/04/26 11:22:53;;;;;;;14.82;3.22;;;;;;;17.07;24.97;100572.44;5035957;27;101375;-72
2021/04/26 11:25:38;;;;;;;6.03;2.10;;;;;;;16.30;23.99;100568.72;5039471;27;101369;-71
2021/04/26 11:28:04;;;;;;;2.97;1.73;;;;;;;16.52;24.22;100563.13;5073207;27;97065;-72
2021/04/26 11:30:33;;;;;;;3.55;1.60;;;;;;;16.05;23.50;100563.03;5054572;27;97615;-72
2021/04/26 11:33:13;;;;;;;6.63;1.92;;;;;;;15.37;24.53;100563.81;5055489;27;101799;-73
2021/04/26 11:36:15;;;;;;;7.22;1.73;;;;;;;15.54;24.40;100562.97;5036812;27;101139;-73
2021/04/26 11:38:45;;;;;;;4.75;2.08;;;;;;;15.14;24.63;100561.47;5028781;27;97214;-72